Time;durP1;ratioP1;P1;durP2;ratioP2;P2;SDS_P1;SDS_P2;PMS_P1;PMS_P2;Temp;Humidity;BMP_temperature;BMP_pressure;BME280_temperature;BME280_humidity;BME280_pressure;Samples;Min_cycle;Max_cycle;Signal;HPM_P1;HPM_P2
2022/05/31 00:01:54;;;;;;;2.10;2.00;;;8.30;99.90;;;;;;481331;247;28000;-71
2022/05/31 00:03:55;;;;;;;1.90;1.80;;;8.10;99.90;;;;;;481360;247;27879;-71
2022/05/31 00:05:56;;;;;;;1.93;1.83;;;8.10;99.90;;;;;;481333;247;28035;-72
2022/05/31 00:07:57;;;;;;;1.90;1.80;;;8.10;99.90;;;;;;481345;247;27993;-71
2022/05/31 00:09:59;;;;;;;2.10;2.00;;;8.20;99.90;;;;;;481334;247;27805;-71
2022/05/31 00:12:00;;;;;;;2.10;2.00;;;8.20;99.90;;;;;;481342;247;28155;-72
2022/05/31 00:14:01;;;;;;;2.20;2.10;;;8.20;99.90;;;;;;481369;246;27620;-71
2022/05/31 00:16:02;;;;;;;2.03;1.93;;;8.30;99.90;;;;;;481360;247;28027;-72
2022/05/31 00:18:04;;;;;;;2.30;2.20;;;8.40;99.90;;;;;;481361;247;28034;-71
2022/05/31 00:20:05;;;;;;;2.43;2.33;;;8.40;99.90;;;;;;481343;247;27956;-72
2022/05/31 00:22:06;;;;;;;2.20;2.10;;;8.30;99.90;;;;;;481346;247;28571;-73
2022/05/31 00:24:07;;;;;;;2.03;1.93;;;8.30;99.90;;;;;;481346;247;28548;-71
2022/05/31 00:26:09;;;;;;;2.23;2.13;;;8.30;99.90;;;;;;481338;247;28401;-71
2022/05/31 00:28:10;;;;;;;2.20;2.10;;;8.40;99.90;;;;;;481346;247;28333;-71
2022/05/31 00:30:11;;;;;;;2.10;2.00;;;8.30;99.90;;;;;;481316;247;28053;-71
2022/05/31 00:32:12;;;;;;;2.20;2.10;;;8.20;99.90;;;;;;481334;247;28048;-71
2022/05/31 00:34:14;;;;;;;2.40;2.30;;;8.20;99.90;;;;;;481353;247;28084;-71
2022/05/31 00:36:15;;;;;;;1.93;1.83;;;8.20;99.90;;;;;;481341;247;27806;-72
2022/05/31 00:38:16;;;;;;;2.27;2.17;;;8.10;99.90;;;;;;481342;247;27396;-70
2022/05/31 00:40:17;;;;;;;2.30;2.20;;;8.10;99.90;;;;;;481347;247;27947;-71
2022/05/31 00:42:19;;;;;;;1.93;1.93;;;8.00;99.90;;;;;;481352;247;27780;-71
2022/05/31 00:44:26;;;;;;;1.90;1.80;;;7.90;99.90;;;;;;481349;247;27662;-71
2022/05/31 00:46:21;;;;;;;2.30;2.10;;;7.80;99.90;;;;;;480908;247;27926;-73
2022/05/31 00:48:23;;;;;;;2.50;2.30;;;7.60;99.90;;;;;;481325;246;27784;-70
2022/05/31 00:50:24;;;;;;;2.33;2.17;;;7.60;99.90;;;;;;481272;247;27971;-71
2022/05/31 00:52:25;;;;;;;2.10;2.00;;;7.70;99.90;;;;;;481353;247;28149;-74
2022/05/31 00:54:26;;;;;;;2.10;2.00;;;7.70;99.90;;;;;;481348;247;28007;-70
2022/05/31 00:56:27;;;;;;;2.13;2.03;;;7.70;99.90;;;;;;481353;247;28231;-71
2022/05/31 00:58:29;;;;;;;2.30;2.10;;;7.60;99.90;;;;;;481335;247;28311;-70
2022/05/31 01:00:30;;;;;;;2.17;2.10;;;7.50;99.90;;;;;;481339;247;28579;-71
2022/05/31 01:02:31;;;;;;;2.20;2.10;;;7.50;99.90;;;;;;481369;247;28452;-72
2022/05/31 01:04:32;;;;;;;2.50;2.40;;;7.40;99.90;;;;;;481300;247;28306;-71
2022/05/31 01:06:34;;;;;;;2.63;2.53;;;7.40;99.90;;;;;;480892;247;27935;-71
2022/05/31 01:08:35;;;;;;;2.50;2.40;;;7.50;99.90;;;;;;480718;247;27897;-71
2022/05/31 01:10:36;;;;;;;2.50;2.40;;;7.60;99.90;;;;;;480974;247;27857;-71
2022/05/31 01:12:37;;;;;;;2.30;2.20;;;7.60;99.90;;;;;;481339;246;27921;-74
2022/05/31 01:14:41;;;;;;;2.93;2.47;;;7.60;99.90;;;;;;481342;247;27864;-71
2022/05/31 01:16:40;;;;;;;2.50;2.40;;;7.50;99.90;;;;;;481247;247;27890;-71
2022/05/31 01:18:41;;;;;;;2.37;2.17;;;7.50;99.90;;;;;;481348;246;27893;-71
2022/05/31 01:20:42;;;;;;;2.30;2.20;;;7.50;99.90;;;;;;481334;247;27791;-71
2022/05/31 01:22:44;;;;;;;2.30;2.10;;;7.50;99.90;;;;;;481351;247;27887;-73
2022/05/31 01:24:45;;;;;;;5.13;2.40;;;7.60;99.90;;;;;;481360;246;28000;-71
2022/05/31 01:26:46;;;;;;;2.53;2.33;;;7.60;99.90;;;;;;481392;247;27744;-71
2022/05/31 01:28:47;;;;;;;2.40;2.30;;;7.60;99.90;;;;;;481386;247;27895;-71
2022/05/31 01:30:49;;;;;;;2.30;2.20;;;7.40;99.90;;;;;;481353;247;27794;-71
2022/05/31 01:32:50;;;;;;;2.10;2.00;;;7.30;99.90;;;;;;481390;247;28031;-73
2022/05/31 01:34:52;;;;;;;2.20;2.10;;;7.30;99.90;;;;;;481388;247;28322;-71
2022/05/31 01:36:52;;;;;;;2.03;1.93;;;7.40;99.90;;;;;;481309;247;28504;-71
2022/05/31 01:38:54;;;;;;;2.20;2.10;;;7.40;99.90;;;;;;481358;247;28268;-71
2022/05/31 01:40:55;;;;;;;2.47;2.37;;;7.40;99.90;;;;;;481360;247;28438;-71
2022/05/31 01:42:56;;;;;;;2.70;2.60;;;7.40;99.90;;;;;;481395;247;28737;-74
2022/05/31 01:44:57;;;;;;;2.10;2.00;;;7.30;99.90;;;;;;481349;247;27772;-71
2022/05/31 01:46:58;;;;;;;2.30;2.20;;;7.40;99.90;;;;;;481378;247;27812;-71
2022/05/31 01:49:00;;;;;;;2.33;2.23;;;7.40;99.90;;;;;;481345;247;27814;-71
2022/05/31 01:51:01;;;;;;;2.13;2.03;;;7.30;99.90;;;;;;481330;246;27982;-71
2022/05/31 01:53:02;;;;;;;2.10;2.00;;;7.30;99.90;;;;;;481376;247;28570;-74
2022/05/31 01:55:03;;;;;;;2.23;2.03;;;7.30;99.90;;;;;;481384;247;28267;-71
2022/05/31 01:57:05;;;;;;;2.27;2.07;;;7.30;99.90;;;;;;481375;247;27929;-71
2022/05/31 01:59:06;;;;;;;2.20;2.10;;;7.20;99.90;;;;;;481350;247;27988;-71
2022/05/31 02:01:07;;;;;;;2.23;2.13;;;7.20;99.90;;;;;;481361;247;28047;-71
2022/05/31 02:03:09;;;;;;;2.10;2.00;;;7.00;99.90;;;;;;481375;247;28802;-72
2022/05/31 02:05:10;;;;;;;2.00;1.90;;;6.90;99.90;;;;;;481393;247;27531;-69
2022/05/31 02:07:11;;;;;;;2.40;2.30;;;6.90;99.90;;;;;;481368;247;28003;-72
2022/05/31 02:09:12;;;;;;;2.23;2.13;;;6.90;99.90;;;;;;481354;247;27630;-71
2022/05/31 02:11:13;;;;;;;2.30;2.20;;;6.80;99.90;;;;;;481353;247;28025;-69
2022/05/31 02:13:15;;;;;;;2.30;2.20;;;6.80;99.90;;;;;;481329;247;29010;-71
2022/05/31 02:15:16;;;;;;;2.50;2.37;;;6.90;99.90;;;;;;481370;247;28214;-71
2022/05/31 02:17:17;;;;;;;2.43;2.23;;;7.00;99.90;;;;;;481355;247;28016;-72
2022/05/31 02:19:28;;;;;;;2.43;2.33;;;6.90;99.90;;;;;;481373;247;29226;-69
2022/05/31 02:21:20;;;;;;;2.30;2.20;;;6.70;99.90;;;;;;480763;247;28403;-71
2022/05/31 02:23:21;;;;;;;2.30;2.20;;;6.60;99.90;;;;;;481356;247;28794;-69
2022/05/31 02:25:22;;;;;;;2.10;2.00;;;6.60;99.90;;;;;;481385;247;28101;-69
2022/05/31 02:27:23;;;;;;;2.40;2.30;;;6.70;99.90;;;;;;481369;247;27973;-71
2022/05/31 02:29:25;;;;;;;2.17;2.07;;;6.70;99.90;;;;;;481323;247;27481;-71
2022/05/31 02:31:26;;;;;;;2.10;2.00;;;6.70;99.90;;;;;;481356;247;27819;-71
2022/05/31 02:33:27;;;;;;;2.50;2.40;;;6.60;99.90;;;;;;480828;247;28861;-74
2022/05/31 02:35:29;;;;;;;2.43;2.33;;;6.60;99.90;;;;;;481044;247;27521;-70
2022/05/31 02:37:30;;;;;;;2.30;2.20;;;6.60;99.90;;;;;;481335;247;28778;-71
2022/05/31 02:39:31;;;;;;;2.50;2.40;;;6.50;99.90;;;;;;481350;247;27955;-71
2022/05/31 02:41:32;;;;;;;2.40;2.30;;;6.50;99.90;;;;;;481345;247;28002;-71
2022/05/31 02:43:36;;;;;;;2.60;2.42;;;6.60;99.90;;;;;;481367;247;27444;-73
2022/05/31 02:45:36;;;;;;;2.30;2.20;;;6.70;99.90;;;;;;481328;247;27810;-72
2022/05/31 02:47:39;;;;;;;2.40;2.30;;;6.70;99.90;;;;;;481346;246;27952;-71
2022/05/31 02:49:39;;;;;;;2.50;2.40;;;6.70;99.90;;;;;;481246;247;27961;-72
2022/05/31 02:51:40;;;;;;;2.10;2.00;;;6.70;99.90;;;;;;481334;247;29457;-73
2022/05/31 02:53:41;;;;;;;2.30;2.20;;;6.70;99.90;;;;;;481362;246;27862;-71
2022/05/31 02:55:42;;;;;;;2.30;2.20;;;6.80;99.90;;;;;;481390;247;27432;-72
2022/05/31 02:57:43;;;;;;;3.75;2.50;;;6.80;99.90;;;;;;481326;247;27401;-71
2022/05/31 02:59:45;;;;;;;2.47;2.28;;;6.70;99.90;;;;;;481335;247;27508;-71
2022/05/31 03:01:46;;;;;;;2.10;2.00;;;6.60;99.90;;;;;;481373;246;27437;-74
2022/05/31 03:03:47;;;;;;;2.73;2.53;;;6.50;99.90;;;;;;481406;247;27880;-71
2022/05/31 03:05:49;;;;;;;2.30;2.20;;;6.50;99.90;;;;;;481349;247;29356;-68
2022/05/31 03:07:50;;;;;;;2.08;2.00;;;6.50;99.90;;;;;;481385;247;27408;-68
2022/05/31 03:09:51;;;;;;;2.10;2.00;;;6.50;99.90;;;;;;481369;247;27479;-72
2022/05/31 03:11:52;;;;;;;2.67;2.50;;;6.50;99.90;;;;;;481360;247;27562;-72
2022/05/31 03:13:54;;;;;;;2.57;2.40;;;6.50;99.90;;;;;;481389;247;27546;-70
2022/05/31 03:15:55;;;;;;;2.50;2.40;;;6.60;99.90;;;;;;481333;247;27555;-71
2022/05/31 03:17:56;;;;;;;2.00;1.90;;;6.70;99.90;;;;;;481331;247;27981;-71
2022/05/31 03:19:57;;;;;;;2.73;2.53;;;6.70;99.90;;;;;;481353;247;28811;-71
2022/05/31 03:21:59;;;;;;;2.50;2.40;;;6.80;99.90;;;;;;481381;247;29395;-72
2022/05/31 03:24:00;;;;;;;2.20;2.10;;;6.80;99.90;;;;;;481382;247;27409;-71
2022/05/31 03:26:01;;;;;;;2.40;2.30;;;6.80;99.90;;;;;;481382;247;28504;-71
2022/05/31 03:28:02;;;;;;;2.20;2.10;;;6.70;99.90;;;;;;481336;247;27400;-70
2022/05/31 03:30:04;;;;;;;2.33;2.17;;;6.70;99.90;;;;;;481350;247;27449;-71
2022/05/31 03:32:05;;;;;;;2.07;1.97;;;6.70;99.90;;;;;;481380;247;27482;-73
2022/05/31 03:34:06;;;;;;;2.40;2.30;;;6.70;99.90;;;;;;481376;247;28528;-71
2022/05/31 03:36:07;;;;;;;2.40;2.30;;;6.80;99.90;;;;;;481362;247;27955;-71
2022/05/31 03:38:09;;;;;;;2.30;2.20;;;6.80;99.90;;;;;;481344;247;28363;-71
2022/05/31 03:40:10;;;;;;;2.13;2.03;;;6.70;99.90;;;;;;481353;247;28068;-71
2022/05/31 03:42:11;;;;;;;2.20;2.10;;;6.70;99.90;;;;;;481343;247;28616;-74
2022/05/31 03:44:12;;;;;;;2.10;2.00;;;6.60;99.90;;;;;;481373;247;27431;-71
2022/05/31 03:46:14;;;;;;;2.27;2.17;;;6.60;99.90;;;;;;481354;247;27899;-71
2022/05/31 03:48:15;;;;;;;2.30;2.20;;;6.60;99.90;;;;;;481345;247;28044;-71
2022/05/31 03:50:16;;;;;;;2.30;2.20;;;6.60;99.90;;;;;;481334;247;28830;-71
2022/05/31 03:52:17;;;;;;;2.20;2.10;;;6.60;99.90;;;;;;481357;247;27444;-74
2022/05/31 03:54:19;;;;;;;2.23;1.90;;;6.60;99.90;;;;;;481373;247;27523;-68
2022/05/31 03:56:20;;;;;;;2.17;2.07;;;6.70;99.90;;;;;;481286;247;28797;-69
2022/05/31 03:58:21;;;;;;;2.03;1.93;;;6.80;99.90;;;;;;481342;247;27650;-69
2022/05/31 04:00:23;;;;;;;2.70;2.47;;;6.80;99.90;;;;;;481349;247;29155;-68
2022/05/31 04:02:24;;;;;;;2.50;2.40;;;6.80;99.90;;;;;;481358;247;28624;-74
2022/05/31 04:04:25;;;;;;;2.40;2.20;;;6.80;99.90;;;;;;481377;247;28407;-71
2022/05/31 04:06:26;;;;;;;2.60;2.40;;;6.60;99.90;;;;;;481350;247;28232;-71
2022/05/31 04:08:27;;;;;;;2.50;2.40;;;6.50;99.90;;;;;;481351;247;29307;-71
2022/05/31 04:10:29;;;;;;;2.50;2.37;;;6.40;99.90;;;;;;481347;247;27515;-68
2022/05/31 04:12:30;;;;;;;2.30;2.20;;;6.40;99.90;;;;;;481343;247;27936;-70
2022/05/31 04:14:31;;;;;;;3.40;2.40;;;6.50;99.90;;;;;;481366;247;27519;-68
2022/05/31 04:16:32;;;;;;;3.03;2.20;;;6.60;99.90;;;;;;481358;247;27919;-69
2022/05/31 04:18:34;;;;;;;2.10;2.00;;;6.70;99.90;;;;;;481352;247;28836;-68
2022/05/31 04:20:37;;;;;;;2.27;2.17;;;6.80;99.90;;;;;;481352;247;27437;-68
2022/05/31 04:22:36;;;;;;;2.87;2.67;;;6.90;99.90;;;;;;481260;247;28114;-73
2022/05/31 04:24:37;;;;;;;2.62;2.45;;;6.90;99.90;;;;;;481361;247;27956;-71
2022/05/31 04:26:39;;;;;;;2.60;2.40;;;7.00;99.90;;;;;;481325;247;28001;-71
2022/05/31 04:28:40;;;;;;;2.40;2.30;;;7.00;99.90;;;;;;481337;247;28317;-71
2022/05/31 04:30:41;;;;;;;2.43;2.23;;;7.00;99.90;;;;;;481331;247;28459;-71
2022/05/31 04:32:42;;;;;;;2.57;2.40;;;7.00;99.90;;;;;;481382;247;28615;-74
2022/05/31 04:34:44;;;;;;;2.30;2.20;;;7.00;99.90;;;;;;481391;247;28097;-71
2022/05/31 04:36:45;;;;;;;2.53;2.37;;;7.00;99.90;;;;;;481413;247;27904;-71
2022/05/31 04:38:46;;;;;;;2.77;2.57;;;7.10;99.90;;;;;;481376;247;27763;-71
2022/05/31 04:40:47;;;;;;;3.00;2.80;;;7.10;99.90;;;;;;481265;247;27453;-71
2022/05/31 04:42:49;;;;;;;2.70;2.50;;;7.00;99.90;;;;;;481385;247;27994;-74
2022/05/31 04:44:50;;;;;;;2.63;2.50;;;6.90;99.90;;;;;;481351;247;27862;-71
2022/05/31 04:46:51;;;;;;;2.83;2.70;;;7.10;99.90;;;;;;481369;247;27797;-71
2022/05/31 04:48:52;;;;;;;2.80;2.70;;;7.00;99.90;;;;;;481351;247;27907;-70
2022/05/31 04:50:54;;;;;;;2.60;2.50;;;7.10;99.90;;;;;;481342;247;27813;-71
2022/05/31 04:52:55;;;;;;;2.30;2.20;;;7.20;99.90;;;;;;481378;247;27896;-73
2022/05/31 04:54:56;;;;;;;2.90;2.70;;;7.20;99.90;;;;;;481362;247;27967;-71
2022/05/31 04:56:59;;;;;;;2.63;2.53;;;7.20;99.90;;;;;;481340;247;28051;-72
2022/05/31 04:58:59;;;;;;;2.47;2.37;;;7.20;99.90;;;;;;481268;247;27831;-71
2022/05/31 05:01:10;;;;;;;2.43;2.33;;;7.20;99.90;;;;;;481352;247;28017;-72
2022/05/31 05:03:01;;;;;;;2.47;2.30;;;7.40;99.90;;;;;;480770;247;28272;-74
2022/05/31 05:05:02;;;;;;;2.67;2.57;;;7.50;99.90;;;;;;481390;247;28474;-71
2022/05/31 05:07:04;;;;;;;2.37;2.27;;;7.50;99.90;;;;;;481370;247;28349;-72
2022/05/31 05:09:05;;;;;;;2.30;2.20;;;7.50;99.90;;;;;;481361;247;28890;-71
2022/05/31 05:11:07;;;;;;;3.30;2.17;;;7.50;99.90;;;;;;481361;247;28278;-71
2022/05/31 05:13:07;;;;;;;2.53;2.43;;;7.50;99.90;;;;;;481345;247;28446;-73
2022/05/31 05:15:09;;;;;;;2.80;2.70;;;7.50;99.90;;;;;;481381;247;27519;-71
2022/05/31 05:17:10;;;;;;;2.63;2.53;;;7.50;99.90;;;;;;481341;247;27543;-72
2022/05/31 05:19:12;;;;;;;2.10;2.00;;;7.60;99.90;;;;;;481370;246;28117;-71
2022/05/31 05:21:12;;;;;;;2.70;2.50;;;7.70;99.90;;;;;;481292;247;27846;-73
2022/05/31 05:23:14;;;;;;;2.70;2.53;;;7.80;99.90;;;;;;481384;247;27998;-73
2022/05/31 05:25:15;;;;;;;2.30;2.20;;;7.90;99.90;;;;;;481365;247;27670;-71
2022/05/31 05:27:16;;;;;;;2.30;2.20;;;8.00;99.90;;;;;;481367;247;28044;-72
2022/05/31 05:31:40;;;;;;;2.57;2.47;;;8.10;99.90;;;;;;481374;247;28069;-71
2022/05/31 05:33:38;;;;;;;2.20;2.10;;;8.10;99.90;;;;;;481157;247;28003;-72
2022/05/31 05:35:39;;;;;;;2.37;2.27;;;8.10;99.90;;;;;;481383;247;27833;-71
2022/05/31 05:37:41;;;;;;;2.10;2.00;;;8.20;99.90;;;;;;481353;247;28059;-72
2022/05/31 05:39:43;;;;;;;2.03;1.93;;;8.30;99.90;;;;;;481364;242;28375;-74
2022/05/31 05:41:43;;;;;;;2.20;2.10;;;8.30;99.90;;;;;;481323;247;27619;-71
2022/05/31 05:43:44;;;;;;;2.00;1.90;;;8.50;99.90;;;;;;481365;247;27799;-72
2022/05/31 05:45:46;;;;;;;2.20;2.10;;;8.60;99.90;;;;;;481329;247;28409;-72
2022/05/31 05:47:47;;;;;;;2.50;2.40;;;8.70;99.90;;;;;;481328;247;28568;-72
2022/05/31 05:49:48;;;;;;;2.30;2.20;;;8.90;99.90;;;;;;481341;247;28613;-72
2022/05/31 05:51:49;;;;;;;2.50;2.40;;;9.00;99.90;;;;;;481362;247;27887;-71
2022/05/31 05:53:51;;;;;;;2.53;2.43;;;9.10;99.90;;;;;;481342;247;28042;-72
2022/05/31 05:55:52;;;;;;;2.43;2.33;;;9.20;99.90;;;;;;481305;247;27943;-71
2022/05/31 05:57:54;;;;;;;2.30;2.20;;;9.30;99.90;;;;;;481340;247;27447;-71
2022/05/31 05:59:54;;;;;;;2.33;2.23;;;9.40;99.90;;;;;;481302;247;28123;-73
2022/05/31 06:01:56;;;;;;;2.47;2.37;;;9.50;99.90;;;;;;481304;247;28108;-71
2022/05/31 06:03:57;;;;;;;2.00;1.90;;;9.80;99.90;;;;;;481378;247;28060;-72
2022/05/31 06:05:58;;;;;;;2.10;2.00;;;10.10;99.90;;;;;;481367;247;27894;-72
2022/05/31 06:07:59;;;;;;;2.33;2.20;;;10.30;99.90;;;;;;481331;247;27979;-72
2022/05/31 06:10:01;;;;;;;2.30;2.20;;;10.60;99.90;;;;;;481326;247;28364;-74
2022/05/31 06:12:03;;;;;;;2.20;2.10;;;10.70;99.90;;;;;;481349;247;28249;-71
2022/05/31 06:14:03;;;;;;;1.90;1.80;;;10.90;99.90;;;;;;481342;247;28157;-72
2022/05/31 06:16:04;;;;;;;2.20;2.10;;;11.00;99.90;;;;;;481341;247;27888;-72
2022/05/31 06:18:06;;;;;;;2.10;2.00;;;11.10;99.90;;;;;;481349;247;28009;-72
2022/05/31 06:20:07;;;;;;;2.20;2.10;;;11.20;99.90;;;;;;481385;247;28123;-75
2022/05/31 06:22:08;;;;;;;2.20;2.10;;;11.30;99.90;;;;;;481362;247;27969;-72
2022/05/31 06:24:09;;;;;;;2.07;1.97;;;11.30;99.90;;;;;;481365;247;28218;-72
2022/05/31 06:26:11;;;;;;;2.17;2.07;;;11.40;99.90;;;;;;481361;247;27894;-71
2022/05/31 06:28:12;;;;;;;2.77;2.57;;;11.40;99.90;;;;;;481363;247;28303;-72
2022/05/31 06:30:13;;;;;;;2.00;1.90;;;11.40;99.90;;;;;;481388;247;28183;-74
2022/05/31 06:32:16;;;;;;;2.03;1.93;;;11.40;99.90;;;;;;481375;247;28337;-72
2022/05/31 06:34:19;;;;;;;2.10;2.00;;;11.40;99.90;;;;;;481303;247;28619;-72
2022/05/31 06:36:20;;;;;;;2.30;2.20;;;11.40;99.90;;;;;;481340;247;28311;-72
2022/05/31 06:38:21;;;;;;;2.10;2.00;;;11.30;99.90;;;;;;481363;247;28368;-75
2022/05/31 06:40:23;;;;;;;2.17;2.07;;;11.30;99.90;;;;;;481359;247;28176;-72
2022/05/31 06:42:24;;;;;;;2.10;2.00;;;11.30;99.90;;;;;;481362;247;28195;-72
2022/05/31 06:44:25;;;;;;;2.83;2.10;;;11.30;99.90;;;;;;481349;246;28784;-72
2022/05/31 06:46:26;;;;;;;2.10;2.00;;;11.30;99.90;;;;;;481326;247;28840;-72
2022/05/31 06:48:28;;;;;;;2.10;2.00;;;11.40;99.90;;;;;;481391;247;28568;-73
2022/05/31 06:50:29;;;;;;;2.23;2.00;;;11.40;99.90;;;;;;481363;247;28672;-72
2022/05/31 06:57:11;;;;;;;2.20;2.10;;;11.70;99.90;;;;;;481378;247;28578;-72
2022/05/31 06:59:11;;;;;;;1.97;1.87;;;11.80;99.90;;;;;;481285;247;28517;-72
2022/05/31 07:01:12;;;;;;;2.17;2.03;;;11.80;99.90;;;;;;481356;247;28150;-71
2022/05/31 07:03:13;;;;;;;2.40;2.20;;;11.90;99.90;;;;;;481371;247;28318;-72
2022/05/31 07:05:14;;;;;;;2.33;2.10;;;12.00;99.90;;;;;;481370;247;28273;-72
2022/05/31 07:07:16;;;;;;;3.60;2.00;;;12.20;99.90;;;;;;481315;247;28244;-72
2022/05/31 07:09:17;;;;;;;2.30;2.10;;;12.40;99.90;;;;;;481275;247;28367;-72
2022/05/31 07:11:18;;;;;;;1.90;1.80;;;12.60;99.90;;;;;;481280;247;28416;-72
2022/05/31 07:13:20;;;;;;;2.23;1.83;;;12.60;99.90;;;;;;481313;247;28457;-72
2022/05/31 07:15:21;;;;;;;1.83;1.73;;;12.60;99.90;;;;;;481267;247;28384;-73
2022/05/31 07:17:23;;;;;;;1.90;1.80;;;12.60;99.90;;;;;;481306;247;28850;-72
2022/05/31 07:19:23;;;;;;;1.87;1.77;;;12.60;99.90;;;;;;481289;247;28941;-72
2022/05/31 07:21:24;;;;;;;1.93;1.83;;;12.50;99.90;;;;;;481328;247;28930;-72
2022/05/31 07:23:27;;;;;;;1.80;1.70;;;;;;;;;;481334;247;28496;-72
2022/05/31 07:25:28;;;;;;;2.10;2.00;;;12.50;99.90;;;;;;481338;247;27473;-72
2022/05/31 07:27:29;;;;;;;2.00;1.90;;;12.50;99.90;;;;;;481356;247;28198;-72
2022/05/31 07:29:30;;;;;;;3.13;1.90;;;12.50;99.90;;;;;;481365;247;29104;-74
2022/05/31 07:31:32;;;;;;;2.00;1.90;;;12.40;99.90;;;;;;481363;247;28682;-72
2022/05/31 07:33:35;;;;;;;1.90;1.80;;;12.40;99.90;;;;;;481345;247;28803;-73
2022/05/31 07:35:34;;;;;;;1.97;1.87;;;12.60;99.90;;;;;;481281;247;28908;-71
2022/05/31 07:37:35;;;;;;;1.90;1.80;;;12.80;99.90;;;;;;481311;247;29130;-73
2022/05/31 07:39:37;;;;;;;2.10;2.00;;;13.10;99.90;;;;;;481352;247;29490;-71
2022/05/31 07:41:38;;;;;;;1.97;1.87;;;13.20;99.90;;;;;;481357;247;28110;-72
2022/05/31 07:43:39;;;;;;;1.93;1.70;;;13.30;99.90;;;;;;481341;247;28242;-72
2022/05/31 07:45:40;;;;;;;2.07;1.97;;;13.30;99.90;;;;;;481332;247;28136;-72
2022/05/31 07:47:42;;;;;;;1.60;1.60;;;13.40;99.90;;;;;;481324;247;28164;-72
2022/05/31 07:49:43;;;;;;;1.80;1.70;;;13.50;99.90;;;;;;481353;247;28142;-74
2022/05/31 07:51:44;;;;;;;1.73;1.63;;;13.70;99.90;;;;;;481345;247;28159;-72
2022/05/31 07:53:45;;;;;;;1.83;1.73;;;13.90;99.90;;;;;;481349;247;29035;-73
2022/05/31 07:55:47;;;;;;;1.70;1.60;;;14.00;99.90;;;;;;481335;247;28911;-72
2022/05/31 08:00:07;;;;;;;1.70;1.60;;;14.30;99.90;;;;;;481346;247;28806;-75
2022/05/31 08:02:09;;;;;;;1.70;1.60;;;14.30;99.90;;;;;;481366;247;28839;-72
2022/05/31 08:04:10;;;;;;;1.53;1.50;;;14.40;99.90;;;;;;481356;247;28884;-72
2022/05/31 08:06:11;;;;;;;1.87;1.77;;;14.60;99.90;;;;;;481357;247;28745;-72
2022/05/31 08:08:12;;;;;;;1.73;1.63;;;14.70;99.90;;;;;;481362;247;28790;-72
2022/05/31 08:10:14;;;;;;;2.63;1.70;;;14.70;99.90;;;;;;481384;247;29295;-73
2022/05/31 08:12:15;;;;;;;1.53;1.43;;;14.70;99.90;;;;;;481369;247;29217;-72
2022/05/31 08:14:16;;;;;;;1.30;1.30;;;14.70;99.90;;;;;;481361;247;29276;-73
2022/05/31 08:16:17;;;;;;;1.70;1.70;;;14.80;99.90;;;;;;481364;247;28917;-72
2022/05/31 08:18:19;;;;;;;2.00;1.80;;;14.70;99.90;;;;;;481336;247;28769;-72
2022/05/31 08:20:20;;;;;;;1.80;1.70;;;14.50;99.90;;;;;;481337;247;28853;-74
2022/05/31 08:22:21;;;;;;;1.77;1.67;;;14.40;99.90;;;;;;481339;247;28772;-72
2022/05/31 08:24:22;;;;;;;1.80;1.70;;;14.40;99.90;;;;;;481344;247;28794;-72
2022/05/31 08:26:24;;;;;;;1.90;1.80;;;14.50;99.90;;;;;;481320;247;28757;-72
2022/05/31 08:28:25;;;;;;;1.83;1.73;;;14.50;99.90;;;;;;481338;247;28785;-72
2022/05/31 08:30:26;;;;;;;2.67;2.00;;;14.60;99.90;;;;;;481339;247;28791;-74
2022/05/31 08:32:27;;;;;;;2.00;1.90;;;14.80;99.90;;;;;;481376;247;28777;-73
2022/05/31 08:34:29;;;;;;;1.93;1.80;;;15.10;99.90;;;;;;481353;247;28901;-72
2022/05/31 08:36:30;;;;;;;2.00;1.90;;;15.20;99.90;;;;;;481367;247;29249;-72
2022/05/31 08:38:31;;;;;;;1.70;1.60;;;15.20;99.90;;;;;;481412;247;29305;-73
2022/05/31 08:40:32;;;;;;;1.67;1.57;;;15.30;99.90;;;;;;481339;247;29297;-73
2022/05/31 08:42:34;;;;;;;1.60;1.50;;;15.30;99.90;;;;;;481367;247;28747;-72
2022/05/31 08:44:36;;;;;;;1.77;1.63;;;15.30;99.90;;;;;;481360;247;28812;-73
2022/05/31 08:46:36;;;;;;;1.80;1.70;;;15.30;99.90;;;;;;481354;247;28781;-72
2022/05/31 08:48:37;;;;;;;2.10;1.90;;;15.20;99.90;;;;;;481374;247;28790;-72
2022/05/31 08:52:58;;;;;;;1.93;1.83;;;15.20;99.90;;;;;;481373;247;29224;-73
2022/05/31 08:57:19;;;;;;;1.60;1.50;;;14.90;99.90;;;;;;481378;247;28777;-73
2022/05/31 08:59:20;;;;;;;1.80;1.70;;;14.90;99.90;;;;;;481401;247;28756;-72
2022/05/31 09:01:21;;;;;;;1.70;1.60;;;14.90;99.90;;;;;;481357;247;28812;-72
2022/05/31 09:03:23;;;;;;;1.60;1.50;;;14.90;99.90;;;;;;481382;247;29662;-72
2022/05/31 09:05:24;;;;;;;1.53;1.43;;;14.90;99.90;;;;;;481379;247;28938;-72
2022/05/31 09:07:25;;;;;;;1.17;1.17;;;15.00;99.90;;;;;;481396;247;29291;-73
2022/05/31 09:09:26;;;;;;;1.30;1.30;;;14.90;99.90;;;;;;481386;247;28893;-72
2022/05/31 09:11:28;;;;;;;1.60;1.50;;;15.00;99.90;;;;;;481362;247;28802;-72
2022/05/31 09:13:29;;;;;;;1.53;1.43;;;15.20;99.90;;;;;;481392;247;28824;-72
2022/05/31 09:15:30;;;;;;;1.40;1.40;;;15.30;99.90;;;;;;481354;247;28851;-72
2022/05/31 09:17:32;;;;;;;1.80;1.70;;;15.60;99.90;;;;;;481382;247;28811;-74
2022/05/31 09:19:33;;;;;;;1.87;1.77;;;15.60;99.90;;;;;;481386;247;28879;-72
2022/05/31 09:21:43;;;;;;;1.90;1.80;;;15.60;99.90;;;;;;481388;247;28789;-73
2022/05/31 09:23:41;;;;;;;1.80;1.60;;;15.50;99.90;;;;;;481193;247;29314;-72
2022/05/31 09:25:42;;;;;;;1.50;1.40;;;15.50;99.90;;;;;;481376;247;29378;-72
2022/05/31 09:27:44;;;;;;;1.70;1.60;;;15.60;99.90;;;;;;480888;247;35937;-74
2022/05/31 09:29:45;;;;;;;1.87;1.73;;;15.90;99.90;;;;;;481395;247;27416;-72
2022/05/31 09:31:46;;;;;;;1.70;1.60;;;16.10;99.90;;;;;;481389;247;28798;-72
2022/05/31 09:33:48;;;;;;;1.83;1.60;;;16.00;99.90;;;;;;481378;247;28828;-72
2022/05/31 09:35:49;;;;;;;2.00;1.90;;;16.10;99.90;;;;;;481338;247;28876;-72
2022/05/31 09:37:50;;;;;;;2.70;1.97;;;16.20;99.90;;;;;;481393;247;29134;-74
2022/05/31 09:39:51;;;;;;;2.00;1.90;;;16.30;99.90;;;;;;481378;247;28838;-72
2022/05/31 09:41:52;;;;;;;1.80;1.70;;;16.20;99.90;;;;;;481394;247;28907;-73
2022/05/31 09:43:53;;;;;;;2.03;1.87;;;16.20;99.90;;;;;;481364;247;29301;-72
2022/05/31 09:45:55;;;;;;;2.00;1.90;;;16.30;99.90;;;;;;481395;247;30140;-72
2022/05/31 09:47:56;;;;;;;1.80;1.70;;;16.40;99.90;;;;;;481326;247;29248;-74
2022/05/31 09:49:58;;;;;;;3.27;1.90;;;16.50;99.90;;;;;;481338;247;28767;-72
2022/05/31 09:51:59;;;;;;;2.20;2.03;;;16.60;99.90;;;;;;481351;247;28810;-72
2022/05/31 09:58:39;;;;;;;1.70;1.60;;;16.80;99.90;;;;;;481389;247;28830;-72
2022/05/31 10:00:40;;;;;;;1.70;1.60;;;17.10;99.90;;;;;;481396;247;28833;-73
2022/05/31 10:02:42;;;;;;;1.60;1.50;;;17.30;99.90;;;;;;481353;247;28746;-72
2022/05/31 10:04:43;;;;;;;1.60;1.50;;;17.50;99.90;;;;;;481360;247;29327;-72
2022/05/31 10:06:44;;;;;;;1.80;1.70;;;17.70;99.90;;;;;;481381;247;29265;-75
2022/05/31 10:08:49;;;;;;;1.60;1.50;;;17.90;99.90;;;;;;481374;247;29210;-73
2022/05/31 10:10:50;;;;;;;1.50;1.40;;;18.00;99.90;;;;;;481372;247;28744;-72
2022/05/31 10:12:51;;;;;;;1.80;1.70;;;18.20;99.90;;;;;;481378;247;28822;-72
2022/05/31 10:14:52;;;;;;;1.40;1.40;;;18.10;99.90;;;;;;481297;247;28762;-72
2022/05/31 10:16:54;;;;;;;1.60;1.50;;;17.80;99.50;;;;;;481313;247;29348;-73
2022/05/31 10:18:55;;;;;;;1.83;1.73;;;17.60;99.90;;;;;;481371;247;29263;-73
2022/05/31 10:20:56;;;;;;;1.73;1.63;;;17.60;96.90;;;;;;481367;247;29282;-72
2022/05/31 10:22:57;;;;;;;1.70;1.60;;;17.50;97.20;;;;;;481350;247;29387;-73
2022/05/31 10:24:58;;;;;;;1.80;1.70;;;17.40;97.90;;;;;;481345;247;28814;-72
2022/05/31 10:27:00;;;;;;;1.50;1.50;;;17.50;96.90;;;;;;481385;247;28794;-72
2022/05/31 10:29:01;;;;;;;1.67;1.57;;;17.40;98.10;;;;;;481361;247;28861;-73
2022/05/31 10:31:03;;;;;;;1.67;1.57;;;17.50;96.80;;;;;;481350;247;28813;-72
2022/05/31 10:33:03;;;;;;;1.73;1.63;;;17.60;97.50;;;;;;481316;247;28907;-73
2022/05/31 10:35:07;;;;;;;1.70;1.60;;;17.80;98.30;;;;;;481362;247;29163;-74
2022/05/31 10:37:06;;;;;;;2.03;1.73;;;17.70;96.30;;;;;;481235;247;28869;-72
2022/05/31 10:39:07;;;;;;;1.60;1.50;;;17.70;97.20;;;;;;481351;247;28792;-73
2022/05/31 10:41:08;;;;;;;1.77;1.63;;;17.80;97.40;;;;;;481343;247;29302;-72
2022/05/31 10:43:10;;;;;;;4.00;1.67;;;17.90;98.60;;;;;;481359;247;29291;-73
2022/05/31 10:45:11;;;;;;;1.70;1.60;;;18.00;98.00;;;;;;481367;247;29346;-74
2022/05/31 10:47:12;;;;;;;2.30;1.80;;;18.30;95.20;;;;;;481365;247;29302;-72
2022/05/31 10:49:13;;;;;;;1.50;1.40;;;18.30;95.40;;;;;;481363;247;28789;-73
2022/05/31 10:51:15;;;;;;;2.30;1.73;;;18.20;93.50;;;;;;481352;247;28825;-73
2022/05/31 10:53:17;;;;;;;1.90;1.80;;;18.60;97.40;;;;;;481361;247;28805;-73
2022/05/31 10:55:17;;;;;;;1.60;1.50;;;18.60;94.40;;;;;;481315;247;28794;-74